createdAt,value
2018-11-28T00:06:26.684Z,97860.39
2018-11-28T00:16:44.642Z,97868.88
2018-11-28T00:27:02.664Z,97878.20
2018-11-28T00:37:20.518Z,97882.89
2018-11-28T00:47:38.946Z,97894.84
2018-11-28T00:57:56.420Z,97914.73
2018-11-28T01:08:14.465Z,97917.23
2018-11-28T01:18:32.433Z,97936.56
2018-11-28T01:28:50.075Z,97941.92
2018-11-28T01:39:08.174Z,97935.09
2018-11-28T01:49:28.230Z,97942.34
2018-11-28T01:59:46.651Z,97948.27
2018-11-28T02:10:05.148Z,97933.88
2018-11-28T02:20:23.065Z,97937.21
2018-11-28T02:30:41.002Z,97951.36
2018-11-28T02:40:58.899Z,97967.16
2018-11-28T02:51:16.700Z,97977.91
2018-11-28T03:01:37.285Z,97991.75
2018-11-28T03:11:55.329Z,97982.28
2018-11-28T03:22:13.415Z,98002.61
2018-11-28T03:32:31.428Z,98009.69
2018-11-28T03:42:49.141Z,98003.63
2018-11-28T03:53:07.200Z,98012.16
2018-11-28T04:03:25.562Z,98023.17
2018-11-28T04:13:43.290Z,98046.04
2018-11-28T04:24:01.316Z,98044.50
2018-11-28T04:34:19.178Z,98053.06
2018-11-28T04:44:37.424Z,98058.52
2018-11-28T04:54:55.121Z,98053.89
2018-11-28T05:05:13.318Z,98062.33
2018-11-28T05:15:36.353Z,98058.91
2018-11-28T05:25:54.834Z,98058.50
2018-11-28T05:36:13.698Z,98076.58
2018-11-28T05:46:31.694Z,98096.21
2018-11-28T05:56:49.843Z,98118.09
2018-11-28T06:07:08.093Z,98123.25
2018-11-28T06:17:26.172Z,98117.06
2018-11-28T06:27:44.402Z,98123.48
2018-11-28T06:38:02.609Z,98132.75
2018-11-28T06:48:20.602Z,98151.11
2018-11-28T06:58:38.290Z,98160.75
2018-11-28T07:08:56.375Z,98179.14
2018-11-28T07:19:14.032Z,98191.12
2018-11-28T07:29:32.126Z,98195.00
2018-11-28T07:39:50.008Z,98213.58
2018-11-28T07:50:09.192Z,98219.74
2018-11-28T08:00:27.298Z,98216.48
2018-11-28T08:10:45.153Z,98220.20
2018-11-28T08:21:02.879Z,98208.70
2018-11-28T08:31:20.407Z,98226.70
2018-11-28T08:41:38.040Z,98222.38
2018-11-28T08:51:57.434Z,98225.36
2018-11-28T09:02:16.065Z,98241.95
2018-11-28T09:12:32.958Z,98241.91
2018-11-28T10:08:06.654Z,98252.52
2018-11-28T10:18:24.976Z,98255.92
2018-11-28T10:28:43.302Z,98251.27
2018-11-28T10:39:01.812Z,98245.53
2018-11-28T10:49:19.862Z,98237.00
2018-11-28T10:59:37.899Z,98230.09
2018-11-28T11:10:13.577Z,98232.11
2018-11-28T11:20:31.529Z,98232.11
2018-11-28T11:30:49.445Z,98231.72
2018-11-28T12:01:36.374Z,98208.34
2018-11-28T12:12:10.988Z,98206.59
2018-11-28T12:22:31.851Z,98204.62
2018-11-28T12:32:50.441Z,98212.63
2018-11-28T12:43:10.470Z,98204.67
2018-11-28T12:53:32.042Z,98210.81
2018-11-28T13:04:04.891Z,98215.37
2018-11-28T13:14:25.807Z,98206.20
2018-11-28T13:24:44.283Z,98219.20
2018-11-28T13:35:03.573Z,98214.34
2018-11-28T13:45:33.035Z,98205.06
2018-11-28T13:56:57.034Z,98216.02
2018-11-28T14:06:15.063Z,98207.52
2018-11-28T14:16:38.901Z,98207.36
2018-11-28T14:26:58.929Z,98219.53
2018-11-28T14:37:21.765Z,98225.63
2018-11-28T14:47:42.062Z,98227.80
2018-11-28T14:58:00.738Z,98238.09
2018-11-28T15:09:26.223Z,98235.69
2018-11-28T15:19:45.094Z,98251.77
2018-11-28T15:30:04.091Z,98267.35
2018-11-28T15:40:23.095Z,98267.25
2018-11-28T15:50:41.593Z,98273.36
2018-11-28T16:01:01.194Z,98273.27
2018-11-28T16:11:20.637Z,98278.18
2018-11-28T16:21:39.111Z,98287.97
2018-11-28T16:31:58.960Z,98288.83
2018-11-28T16:42:17.802Z,98298.56
2018-11-28T16:52:36.472Z,98304.86
2018-11-28T17:02:56.433Z,98311.03
2018-11-28T17:13:15.526Z,98322.28
2018-11-28T17:23:35.337Z,98328.64
2018-11-28T17:33:54.913Z,98345.42
2018-11-28T17:44:13.871Z,98352.25
2018-11-28T17:54:32.938Z,98348.99
2018-11-28T18:04:53.095Z,98351.98
2018-11-28T18:15:13.625Z,98352.42
2018-11-28T18:25:35.529Z,98366.48
2018-11-28T18:35:54.628Z,98364.02
2018-11-28T18:46:22.030Z,98362.73
2018-11-28T18:56:46.904Z,98373.27
2018-11-28T19:07:07.972Z,98368.84
2018-11-28T19:17:33.176Z,98363.97
2018-11-28T19:27:57.640Z,98369.26
2018-11-28T19:38:19.505Z,98378.46
2018-11-28T19:48:42.245Z,98383.51
2018-11-28T19:59:04.935Z,98381.06
2018-11-28T20:09:30.052Z,98375.57
2018-11-28T20:19:59.769Z,98385.78
2018-11-28T20:30:44.694Z,98377.09
2018-11-28T20:41:06.041Z,98379.11
2018-11-28T20:51:34.102Z,98383.72
2018-11-28T21:01:55.710Z,98387.33
2018-11-28T21:12:17.240Z,98385.50
2018-11-28T21:22:36.481Z,98368.40
2018-11-28T21:32:56.779Z,98378.20
2018-11-28T21:43:19.427Z,98373.20
2018-11-28T21:53:38.758Z,98367.11
2018-11-28T22:03:58.116Z,98376.33
2018-11-28T22:14:16.775Z,98371.70
2018-11-28T22:24:35.598Z,98376.92
2018-11-28T22:34:53.456Z,98371.91
2018-11-28T22:45:32.129Z,98365.70
2018-11-28T22:55:50.181Z,98372.70
2018-11-28T23:06:09.804Z,98368.72
2018-11-28T23:16:28.214Z,98364.67
2018-11-28T23:26:47.268Z,98362.34
2018-11-28T23:37:06.685Z,98355.28
2018-11-28T23:47:26.454Z,98346.48
2018-11-28T23:57:45.198Z,98341.73
